Bloomburg, Texas
Current Conditions -  °F | °C
As of 9:53 PM on Friday 24 Oct 2014 (Local Time) from KTXK Reporting Station
Clear Clear  
Wind Chill: 63°   Ceiling: Unl
Heat Index: 63°   Visibility: 10mi
Dew Point: 58°   Wind: 5mph
Humidity: 84%   Direction: 230°SW
Pressure: 30.12"   Gusts: NA
Location:  33.14°N, 94.06°W
Report Text: KTXK 250253Z AUTO 23004KT 10SM CLR 17/14 A3012 RMK AO2 SLP195 T01720144 53005
Loading
Personal Weather Stations






























Interactive Weather Map
Tropical Storm Tracking
New forecast layout! Learn more

10-Day Weather Forecast

Advertisements
Track Severe Weather on mobile